sensor_id;sensor_type;location;lat;lon;timestamp;temperature;humidity
15341;DHT22;7770;52.158;5.372;2022-10-31T00:00:50;12.80;99.90
15341;DHT22;7770;52.158;5.372;2022-10-31T00:03:36;12.80;99.90
15341;DHT22;7770;52.158;5.372;2022-10-31T00:06:23;12.80;99.90
15341;DHT22;7770;52.158;5.372;2022-10-31T00:09:09;12.80;99.90
15341;DHT22;7770;52.158;5.372;2022-10-31T00:11:56;12.90;99.90
15341;DHT22;7770;52.158;5.372;2022-10-31T00:14:42;12.90;99.90
15341;DHT22;7770;52.158;5.372;2022-10-31T00:17:28;12.90;99.90
15341;DHT22;7770;52.158;5.372;2022-10-31T00:20:14;12.90;99.90
15341;DHT22;7770;52.158;5.372;2022-10-31T00:23:00;12.90;99.90
15341;DHT22;7770;52.158;5.372;2022-10-31T00:25:47;13.00;99.90
15341;DHT22;7770;52.158;5.372;2022-10-31T00:28:34;13.00;99.90
15341;DHT22;7770;52.158;5.372;2022-10-31T00:31:20;13.00;99.90
15341;DHT22;7770;52.158;5.372;2022-10-31T00:34:06;13.00;99.90
15341;DHT22;7770;52.158;5.372;2022-10-31T00:36:52;12.90;99.90
15341;DHT22;7770;52.158;5.372;2022-10-31T00:39:38;12.90;99.90
15341;DHT22;7770;52.158;5.372;2022-10-31T00:42:24;12.90;99.90
15341;DHT22;7770;52.158;5.372;2022-10-31T00:45:10;12.90;99.90
15341;DHT22;7770;52.158;5.372;2022-10-31T00:47:57;12.90;99.90
15341;DHT22;7770;52.158;5.372;2022-10-31T00:50:43;12.90;99.90
15341;DHT22;7770;52.158;5.372;2022-10-31T00:53:29;12.90;99.90
15341;DHT22;7770;52.158;5.372;2022-10-31T00:56:15;12.90;99.90
15341;DHT22;7770;52.158;5.372;2022-10-31T00:59:01;12.90;99.90
15341;DHT22;7770;52.158;5.372;2022-10-31T01:01:47;12.90;99.90
15341;DHT22;7770;52.158;5.372;2022-10-31T01:04:33;13.00;99.90
15341;DHT22;7770;52.158;5.372;2022-10-31T01:07:19;13.00;99.90
15341;DHT22;7770;52.158;5.372;2022-10-31T01:10:06;13.00;99.90
15341;DHT22;7770;52.158;5.372;2022-10-31T01:12:52;12.90;99.90
15341;DHT22;7770;52.158;5.372;2022-10-31T01:15:38;12.80;99.90
15341;DHT22;7770;52.158;5.372;2022-10-31T01:18:25;12.60;99.90
15341;DHT22;7770;52.158;5.372;2022-10-31T01:21:14;12.60;99.90
15341;DHT22;7770;52.158;5.372;2022-10-31T01:24:02;12.50;99.90
15341;DHT22;7770;52.158;5.372;2022-10-31T01:26:48;12.50;99.90
15341;DHT22;7770;52.158;5.372;2022-10-31T01:29:34;12.40;99.90
15341;DHT22;7770;52.158;5.372;2022-10-31T01:32:20;12.40;99.90
15341;DHT22;7770;52.158;5.372;2022-10-31T01:35:06;12.40;99.90
15341;DHT22;7770;52.158;5.372;2022-10-31T01:37:52;12.40;99.90
15341;DHT22;7770;52.158;5.372;2022-10-31T01:40:38;12.30;99.90
15341;DHT22;7770;52.158;5.372;2022-10-31T01:43:45;12.30;99.90
15341;DHT22;7770;52.158;5.372;2022-10-31T01:46:48;12.20;99.90
15341;DHT22;7770;52.158;5.372;2022-10-31T01:49:49;12.20;99.90
15341;DHT22;7770;52.158;5.372;2022-10-31T01:52:45;12.10;99.90
15341;DHT22;7770;52.158;5.372;2022-10-31T01:55:35;12.10;99.90
15341;DHT22;7770;52.158;5.372;2022-10-31T01:58:28;12.00;99.90
15341;DHT22;7770;52.158;5.372;2022-10-31T02:01:16;12.00;99.90
15341;DHT22;7770;52.158;5.372;2022-10-31T02:04:04;11.90;99.90
15341;DHT22;7770;52.158;5.372;2022-10-31T02:07:02;11.80;99.90
15341;DHT22;7770;52.158;5.372;2022-10-31T02:09:51;11.80;99.90
15341;DHT22;7770;52.158;5.372;2022-10-31T02:12:39;11.70;99.90
15341;DHT22;7770;52.158;5.372;2022-10-31T02:15:26;11.60;99.90
15341;DHT22;7770;52.158;5.372;2022-10-31T02:18:14;11.50;99.90
15341;DHT22;7770;52.158;5.372;2022-10-31T02:21:11;11.40;99.90
15341;DHT22;7770;52.158;5.372;2022-10-31T02:27:52;11.30;99.90
15341;DHT22;7770;52.158;5.372;2022-10-31T02:34:26;11.10;99.90
15341;DHT22;7770;52.158;5.372;2022-10-31T02:40:35;11.00;99.90
15341;DHT22;7770;52.158;5.372;2022-10-31T02:46:53;10.90;99.90
15341;DHT22;7770;52.158;5.372;2022-10-31T02:49:48;11.00;99.90
15341;DHT22;7770;52.158;5.372;2022-10-31T02:52:39;10.90;99.90
15341;DHT22;7770;52.158;5.372;2022-10-31T02:58:14;10.90;99.90
15341;DHT22;7770;52.158;5.372;2022-10-31T03:13:59;10.60;99.90
15341;DHT22;7770;52.158;5.372;2022-10-31T03:16:52;10.50;99.90
15341;DHT22;7770;52.158;5.372;2022-10-31T03:19:42;10.60;99.90
15341;DHT22;7770;52.158;5.372;2022-10-31T03:22:32;10.60;99.90
15341;DHT22;7770;52.158;5.372;2022-10-31T03:25:18;10.60;99.90
15341;DHT22;7770;52.158;5.372;2022-10-31T03:28:06;10.50;99.90
15341;DHT22;7770;52.158;5.372;2022-10-31T03:30:53;10.60;99.90
15341;DHT22;7770;52.158;5.372;2022-10-31T03:33:40;10.60;99.90
15341;DHT22;7770;52.158;5.372;2022-10-31T03:36:30;10.70;99.90
15341;DHT22;7770;52.158;5.372;2022-10-31T03:39:20;10.70;99.90
15341;DHT22;7770;52.158;5.372;2022-10-31T03:42:16;10.60;99.90
15341;DHT22;7770;52.158;5.372;2022-10-31T03:45:11;10.60;99.90
15341;DHT22;7770;52.158;5.372;2022-10-31T03:47:59;10.70;99.90
15341;DHT22;7770;52.158;5.372;2022-10-31T03:51:06;10.60;99.90
15341;DHT22;7770;52.158;5.372;2022-10-31T03:54:13;10.60;99.90
15341;DHT22;7770;52.158;5.372;2022-10-31T03:57:29;10.50;99.90
15341;DHT22;7770;52.158;5.372;2022-10-31T04:00:20;10.50;99.90
15341;DHT22;7770;52.158;5.372;2022-10-31T04:03:10;10.50;99.90
15341;DHT22;7770;52.158;5.372;2022-10-31T04:06:04;10.60;99.90
15341;DHT22;7770;52.158;5.372;2022-10-31T04:08:56;10.40;99.90
15341;DHT22;7770;52.158;5.372;2022-10-31T04:11:48;10.30;99.90
15341;DHT22;7770;52.158;5.372;2022-10-31T04:14:38;10.30;99.90
15341;DHT22;7770;52.158;5.372;2022-10-31T04:17:27;10.30;99.90
15341;DHT22;7770;52.158;5.372;2022-10-31T04:20:16;10.20;99.90
15341;DHT22;7770;52.158;5.372;2022-10-31T04:23:04;10.20;99.90
15341;DHT22;7770;52.158;5.372;2022-10-31T04:25:50;10.20;99.90
15341;DHT22;7770;52.158;5.372;2022-10-31T04:28:36;10.30;99.90
15341;DHT22;7770;52.158;5.372;2022-10-31T04:31:22;10.30;99.90
15341;DHT22;7770;52.158;5.372;2022-10-31T04:34:08;10.20;99.90
15341;DHT22;7770;52.158;5.372;2022-10-31T04:36:54;10.30;99.90
15341;DHT22;7770;52.158;5.372;2022-10-31T04:39:40;10.30;99.90
15341;DHT22;7770;52.158;5.372;2022-10-31T04:42:29;10.30;99.90
15341;DHT22;7770;52.158;5.372;2022-10-31T04:45:15;10.40;99.90
15341;DHT22;7770;52.158;5.372;2022-10-31T04:48:01;10.50;99.90
15341;DHT22;7770;52.158;5.372;2022-10-31T04:50:47;10.40;99.90
15341;DHT22;7770;52.158;5.372;2022-10-31T04:53:33;10.40;99.90
15341;DHT22;7770;52.158;5.372;2022-10-31T04:56:19;10.50;99.90
15341;DHT22;7770;52.158;5.372;2022-10-31T04:59:05;10.40;99.90
15341;DHT22;7770;52.158;5.372;2022-10-31T05:01:51;10.30;99.90
15341;DHT22;7770;52.158;5.372;2022-10-31T05:04:37;10.30;99.90
15341;DHT22;7770;52.158;5.372;2022-10-31T05:07:23;10.30;99.90
15341;DHT22;7770;52.158;5.372;2022-10-31T05:10:13;10.30;99.90
15341;DHT22;7770;52.158;5.372;2022-10-31T05:13:01;10.40;99.90
15341;DHT22;7770;52.158;5.372;2022-10-31T05:15:49;10.40;99.90
15341;DHT22;7770;52.158;5.372;2022-10-31T05:18:35;10.40;99.90
15341;DHT22;7770;52.158;5.372;2022-10-31T05:21:21;10.30;99.90
15341;DHT22;7770;52.158;5.372;2022-10-31T05:24:07;10.40;99.90
15341;DHT22;7770;52.158;5.372;2022-10-31T05:26:53;10.30;99.90
15341;DHT22;7770;52.158;5.372;2022-10-31T05:29:39;10.30;99.90
15341;DHT22;7770;52.158;5.372;2022-10-31T05:32:25;10.30;99.90
15341;DHT22;7770;52.158;5.372;2022-10-31T05:35:13;10.30;99.90
15341;DHT22;7770;52.158;5.372;2022-10-31T05:38:06;10.30;99.90
15341;DHT22;7770;52.158;5.372;2022-10-31T05:40:56;10.30;99.90
15341;DHT22;7770;52.158;5.372;2022-10-31T05:43:43;10.30;99.90
15341;DHT22;7770;52.158;5.372;2022-10-31T05:46:30;10.20;99.90
15341;DHT22;7770;52.158;5.372;2022-10-31T05:49:16;10.20;99.90
15341;DHT22;7770;52.158;5.372;2022-10-31T05:52:03;10.20;99.90
15341;DHT22;7770;52.158;5.372;2022-10-31T05:54:49;10.20;99.90
15341;DHT22;7770;52.158;5.372;2022-10-31T05:57:35;10.10;99.90
15341;DHT22;7770;52.158;5.372;2022-10-31T06:00:22;10.00;99.90
15341;DHT22;7770;52.158;5.372;2022-10-31T06:03:09;10.00;99.90
15341;DHT22;7770;52.158;5.372;2022-10-31T06:05:55;9.90;99.90
15341;DHT22;7770;52.158;5.372;2022-10-31T06:08:41;9.90;99.90
15341;DHT22;7770;52.158;5.372;2022-10-31T06:11:27;9.80;99.90
15341;DHT22;7770;52.158;5.372;2022-10-31T06:14:13;9.80;99.90
15341;DHT22;7770;52.158;5.372;2022-10-31T06:16:59;9.80;99.90
15341;DHT22;7770;52.158;5.372;2022-10-31T06:19:45;9.80;99.90
15341;DHT22;7770;52.158;5.372;2022-10-31T06:22:31;9.80;99.90
15341;DHT22;7770;52.158;5.372;2022-10-31T06:25:17;9.70;99.90
15341;DHT22;7770;52.158;5.372;2022-10-31T06:28:04;9.60;99.90
15341;DHT22;7770;52.158;5.372;2022-10-31T06:30:50;9.60;99.90
15341;DHT22;7770;52.158;5.372;2022-10-31T06:33:36;9.50;99.90
15341;DHT22;7770;52.158;5.372;2022-10-31T06:36:22;9.50;99.90
15341;DHT22;7770;52.158;5.372;2022-10-31T06:39:08;9.40;99.90
15341;DHT22;7770;52.158;5.372;2022-10-31T06:41:54;9.40;99.90
15341;DHT22;7770;52.158;5.372;2022-10-31T06:44:40;9.40;99.90
15341;DHT22;7770;52.158;5.372;2022-10-31T06:47:26;9.40;99.90
15341;DHT22;7770;52.158;5.372;2022-10-31T06:50:12;9.30;99.90
15341;DHT22;7770;52.158;5.372;2022-10-31T06:52:58;9.30;99.90
15341;DHT22;7770;52.158;5.372;2022-10-31T06:55:44;9.30;99.90
15341;DHT22;7770;52.158;5.372;2022-10-31T06:58:30;9.40;99.90
15341;DHT22;7770;52.158;5.372;2022-10-31T07:01:16;9.40;99.90
15341;DHT22;7770;52.158;5.372;2022-10-31T07:04:02;9.40;99.90
15341;DHT22;7770;52.158;5.372;2022-10-31T07:06:51;9.40;99.90
15341;DHT22;7770;52.158;5.372;2022-10-31T07:09:38;9.50;99.90
15341;DHT22;7770;52.158;5.372;2022-10-31T07:12:24;9.50;99.90
15341;DHT22;7770;52.158;5.372;2022-10-31T07:15:10;9.60;99.90
15341;DHT22;7770;52.158;5.372;2022-10-31T07:18:03;9.70;99.90
15341;DHT22;7770;52.158;5.372;2022-10-31T07:20:51;9.80;99.90
15341;DHT22;7770;52.158;5.372;2022-10-31T07:23:38;9.90;99.90
15341;DHT22;7770;52.158;5.372;2022-10-31T07:26:24;10.00;99.90
15341;DHT22;7770;52.158;5.372;2022-10-31T07:29:10;10.10;99.90
15341;DHT22;7770;52.158;5.372;2022-10-31T07:31:56;10.10;99.90
15341;DHT22;7770;52.158;5.372;2022-10-31T07:34:42;10.30;99.90
15341;DHT22;7770;52.158;5.372;2022-10-31T07:37:27;10.40;99.90
15341;DHT22;7770;52.158;5.372;2022-10-31T07:40:14;10.60;99.90
15341;DHT22;7770;52.158;5.372;2022-10-31T07:43:00;10.80;99.90
15341;DHT22;7770;52.158;5.372;2022-10-31T07:45:51;11.10;99.90
15341;DHT22;7770;52.158;5.372;2022-10-31T07:48:37;11.10;99.90
15341;DHT22;7770;52.158;5.372;2022-10-31T07:51:23;11.20;99.90
15341;DHT22;7770;52.158;5.372;2022-10-31T07:54:09;11.50;99.90
15341;DHT22;7770;52.158;5.372;2022-10-31T07:56:55;11.70;99.90
15341;DHT22;7770;52.158;5.372;2022-10-31T07:59:41;12.30;99.90
15341;DHT22;7770;52.158;5.372;2022-10-31T08:02:27;13.00;99.90
15341;DHT22;7770;52.158;5.372;2022-10-31T08:05:13;13.70;99.90
15341;DHT22;7770;52.158;5.372;2022-10-31T08:07:59;14.40;99.90
15341;DHT22;7770;52.158;5.372;2022-10-31T08:10:45;14.50;99.90
15341;DHT22;7770;52.158;5.372;2022-10-31T08:13:31;14.80;99.90
15341;DHT22;7770;52.158;5.372;2022-10-31T08:16:17;15.20;99.90
15341;DHT22;7770;52.158;5.372;2022-10-31T08:19:10;15.70;99.90
15341;DHT22;7770;52.158;5.372;2022-10-31T08:21:56;16.10;99.90
15341;DHT22;7770;52.158;5.372;2022-10-31T08:24:43;16.40;99.90
15341;DHT22;7770;52.158;5.372;2022-10-31T08:27:29;17.00;99.90
15341;DHT22;7770;52.158;5.372;2022-10-31T08:30:15;18.20;99.90
15341;DHT22;7770;52.158;5.372;2022-10-31T08:33:16;19.10;99.90
15341;DHT22;7770;52.158;5.372;2022-10-31T08:36:03;19.50;99.90
15341;DHT22;7770;52.158;5.372;2022-10-31T08:38:49;19.00;99.90
15341;DHT22;7770;52.158;5.372;2022-10-31T08:41:35;18.30;99.90
15341;DHT22;7770;52.158;5.372;2022-10-31T08:44:21;17.40;99.90
15341;DHT22;7770;52.158;5.372;2022-10-31T08:47:07;16.50;99.90
15341;DHT22;7770;52.158;5.372;2022-10-31T08:49:53;15.30;99.90
15341;DHT22;7770;52.158;5.372;2022-10-31T08:52:39;14.80;99.90
15341;DHT22;7770;52.158;5.372;2022-10-31T08:55:25;14.40;99.90
15341;DHT22;7770;52.158;5.372;2022-10-31T08:58:14;14.10;99.90
15341;DHT22;7770;52.158;5.372;2022-10-31T09:01:01;14.20;99.90
15341;DHT22;7770;52.158;5.372;2022-10-31T09:03:47;14.20;99.90
15341;DHT22;7770;52.158;5.372;2022-10-31T09:06:33;14.60;99.90
15341;DHT22;7770;52.158;5.372;2022-10-31T09:09:19;16.00;99.90
15341;DHT22;7770;52.158;5.372;2022-10-31T09:12:05;17.40;99.90
15341;DHT22;7770;52.158;5.372;2022-10-31T09:14:51;18.20;99.90
15341;DHT22;7770;52.158;5.372;2022-10-31T09:17:37;18.10;99.90
15341;DHT22;7770;52.158;5.372;2022-10-31T09:20:23;19.00;99.90
15341;DHT22;7770;52.158;5.372;2022-10-31T09:23:18;18.40;99.90
15341;DHT22;7770;52.158;5.372;2022-10-31T09:26:05;17.50;99.90
15341;DHT22;7770;52.158;5.372;2022-10-31T09:28:52;17.80;99.90
15341;DHT22;7770;52.158;5.372;2022-10-31T09:31:38;18.00;99.90
15341;DHT22;7770;52.158;5.372;2022-10-31T09:34:24;18.80;99.90
15341;DHT22;7770;52.158;5.372;2022-10-31T09:37:10;19.70;99.90
15341;DHT22;7770;52.158;5.372;2022-10-31T09:39:56;19.00;99.90
15341;DHT22;7770;52.158;5.372;2022-10-31T09:46:30;17.40;99.90
15341;DHT22;7770;52.158;5.372;2022-10-31T09:50:14;17.20;99.90
15341;DHT22;7770;52.158;5.372;2022-10-31T09:53:12;16.90;99.90
15341;DHT22;7770;52.158;5.372;2022-10-31T09:56:07;16.60;99.90
15341;DHT22;7770;52.158;5.372;2022-10-31T09:59:03;16.30;99.90
15341;DHT22;7770;52.158;5.372;2022-10-31T10:01:54;16.10;99.90
15341;DHT22;7770;52.158;5.372;2022-10-31T10:04:59;16.40;99.90
15341;DHT22;7770;52.158;5.372;2022-10-31T10:07:53;16.70;99.90
15341;DHT22;7770;52.158;5.372;2022-10-31T10:10:58;16.90;99.90
15341;DHT22;7770;52.158;5.372;2022-10-31T10:24:30;16.30;99.90
15341;DHT22;7770;52.158;5.372;2022-10-31T10:30:41;15.70;99.90
15341;DHT22;7770;52.158;5.372;2022-10-31T10:33:39;15.60;99.90
15341;DHT22;7770;52.158;5.372;2022-10-31T10:36:38;15.60;99.90
15341;DHT22;7770;52.158;5.372;2022-10-31T10:39:35;15.70;99.90
15341;DHT22;7770;52.158;5.372;2022-10-31T10:42:26;15.80;99.90
15341;DHT22;7770;52.158;5.372;2022-10-31T10:45:31;15.90;99.90
15341;DHT22;7770;52.158;5.372;2022-10-31T10:48:43;16.10;99.90
15341;DHT22;7770;52.158;5.372;2022-10-31T10:52:03;16.20;99.90
15341;DHT22;7770;52.158;5.372;2022-10-31T10:57:58;16.60;99.90
15341;DHT22;7770;52.158;5.372;2022-10-31T11:00:50;16.70;99.90
15341;DHT22;7770;52.158;5.372;2022-10-31T11:03:39;17.10;99.90
15341;DHT22;7770;52.158;5.372;2022-10-31T11:06:25;17.50;99.90
15341;DHT22;7770;52.158;5.372;2022-10-31T11:09:11;17.50;99.90
15341;DHT22;7770;52.158;5.372;2022-10-31T11:11:58;17.40;99.90
15341;DHT22;7770;52.158;5.372;2022-10-31T11:15:06;17.50;99.90
15341;DHT22;7770;52.158;5.372;2022-10-31T11:18:01;17.50;99.90
15341;DHT22;7770;52.158;5.372;2022-10-31T11:20:52;17.60;99.90
15341;DHT22;7770;52.158;5.372;2022-10-31T11:23:42;18.50;99.90
15341;DHT22;7770;52.158;5.372;2022-10-31T11:26:28;18.60;99.90
15341;DHT22;7770;52.158;5.372;2022-10-31T11:32:21;18.50;99.90
15341;DHT22;7770;52.158;5.372;2022-10-31T11:35:14;18.00;99.90
15341;DHT22;7770;52.158;5.372;2022-10-31T11:38:04;17.60;99.90
15341;DHT22;7770;52.158;5.372;2022-10-31T11:40:53;17.50;99.90
15341;DHT22;7770;52.158;5.372;2022-10-31T11:43:53;17.60;99.90
15341;DHT22;7770;52.158;5.372;2022-10-31T11:47:02;17.70;99.90
15341;DHT22;7770;52.158;5.372;2022-10-31T11:49:49;17.60;99.90
15341;DHT22;7770;52.158;5.372;2022-10-31T11:52:37;17.70;99.90
15341;DHT22;7770;52.158;5.372;2022-10-31T11:55:32;17.60;99.90
15341;DHT22;7770;52.158;5.372;2022-10-31T11:58:26;17.40;99.90
15341;DHT22;7770;52.158;5.372;2022-10-31T12:01:25;17.20;99.90
15341;DHT22;7770;52.158;5.372;2022-10-31T12:04:13;17.20;99.90
15341;DHT22;7770;52.158;5.372;2022-10-31T12:06:59;17.10;99.90
15341;DHT22;7770;52.158;5.372;2022-10-31T12:09:45;17.00;99.90
15341;DHT22;7770;52.158;5.372;2022-10-31T12:12:37;17.00;99.90
15341;DHT22;7770;52.158;5.372;2022-10-31T12:15:38;16.80;99.90
15341;DHT22;7770;52.158;5.372;2022-10-31T12:19:03;16.70;99.90
15341;DHT22;7770;52.158;5.372;2022-10-31T12:21:54;16.50;99.90
15341;DHT22;7770;52.158;5.372;2022-10-31T13:00:15;17.40;99.90
15341;DHT22;7770;52.158;5.372;2022-10-31T13:03:23;17.50;99.90
15341;DHT22;7770;52.158;5.372;2022-10-31T13:06:19;17.30;99.90
15341;DHT22;7770;52.158;5.372;2022-10-31T13:09:13;17.30;99.90
15341;DHT22;7770;52.158;5.372;2022-10-31T13:12:08;17.30;99.90
15341;DHT22;7770;52.158;5.372;2022-10-31T13:15:20;17.30;99.90
15341;DHT22;7770;52.158;5.372;2022-10-31T13:18:14;17.20;99.90
15341;DHT22;7770;52.158;5.372;2022-10-31T13:21:11;17.10;99.90
15341;DHT22;7770;52.158;5.372;2022-10-31T13:24:04;17.00;99.90
15341;DHT22;7770;52.158;5.372;2022-10-31T13:26:58;17.00;99.90
15341;DHT22;7770;52.158;5.372;2022-10-31T13:30:06;17.10;99.90
15341;DHT22;7770;52.158;5.372;2022-10-31T13:33:03;17.10;99.90
15341;DHT22;7770;52.158;5.372;2022-10-31T13:36:17;17.10;99.90
15341;DHT22;7770;52.158;5.372;2022-10-31T13:39:44;17.20;99.90
15341;DHT22;7770;52.158;5.372;2022-10-31T13:45:29;17.40;99.90
15341;DHT22;7770;52.158;5.372;2022-10-31T13:51:05;17.60;99.90
15341;DHT22;7770;52.158;5.372;2022-10-31T13:53:58;17.70;99.90
15341;DHT22;7770;52.158;5.372;2022-10-31T14:03:05;17.70;99.90
15341;DHT22;7770;52.158;5.372;2022-10-31T14:05:55;17.70;99.90
15341;DHT22;7770;52.158;5.372;2022-10-31T14:08:48;17.60;99.90
15341;DHT22;7770;52.158;5.372;2022-10-31T14:11:36;17.50;99.90
15341;DHT22;7770;52.158;5.372;2022-10-31T14:14:27;17.50;99.90
15341;DHT22;7770;52.158;5.372;2022-10-31T14:17:26;17.50;99.90
15341;DHT22;7770;52.158;5.372;2022-10-31T14:32:07;17.10;99.90
15341;DHT22;7770;52.158;5.372;2022-10-31T14:35:15;17.00;99.90
15341;DHT22;7770;52.158;5.372;2022-10-31T14:45:02;17.00;99.90
15341;DHT22;7770;52.158;5.372;2022-10-31T14:47:56;17.10;99.90
15341;DHT22;7770;52.158;5.372;2022-10-31T14:50:54;17.00;99.90
15341;DHT22;7770;52.158;5.372;2022-10-31T14:53:52;17.00;99.90
15341;DHT22;7770;52.158;5.372;2022-10-31T14:56:48;17.10;99.90
15341;DHT22;7770;52.158;5.372;2022-10-31T14:59:37;17.00;99.90
15341;DHT22;7770;52.158;5.372;2022-10-31T15:02:32;17.00;99.90
15341;DHT22;7770;52.158;5.372;2022-10-31T15:05:42;17.00;99.90
15341;DHT22;7770;52.158;5.372;2022-10-31T15:08:44;16.90;99.90
15341;DHT22;7770;52.158;5.372;2022-10-31T15:11:37;16.80;99.90
15341;DHT22;7770;52.158;5.372;2022-10-31T15:14:30;16.80;99.90
15341;DHT22;7770;52.158;5.372;2022-10-31T15:17:17;16.70;99.90
15341;DHT22;7770;52.158;5.372;2022-10-31T15:20:03;16.70;99.90
15341;DHT22;7770;52.158;5.372;2022-10-31T15:22:50;16.70;99.90
15341;DHT22;7770;52.158;5.372;2022-10-31T15:25:36;16.70;99.90
15341;DHT22;7770;52.158;5.372;2022-10-31T15:28:24;16.60;99.90
15341;DHT22;7770;52.158;5.372;2022-10-31T15:31:15;16.50;99.90
15341;DHT22;7770;52.158;5.372;2022-10-31T15:34:11;16.50;99.90
15341;DHT22;7770;52.158;5.372;2022-10-31T15:37:01;16.40;99.90
15341;DHT22;7770;52.158;5.372;2022-10-31T15:39:48;16.40;99.90
15341;DHT22;7770;52.158;5.372;2022-10-31T15:42:39;16.40;99.90
15341;DHT22;7770;52.158;5.372;2022-10-31T15:45:27;16.40;99.90
15341;DHT22;7770;52.158;5.372;2022-10-31T15:48:18;16.40;99.90
15341;DHT22;7770;52.158;5.372;2022-10-31T15:51:06;16.30;99.90
15341;DHT22;7770;52.158;5.372;2022-10-31T15:53:53;16.30;99.90
15341;DHT22;7770;52.158;5.372;2022-10-31T15:56:43;16.30;99.90
15341;DHT22;7770;52.158;5.372;2022-10-31T15:59:30;16.30;99.90
15341;DHT22;7770;52.158;5.372;2022-10-31T16:02:22;16.20;99.90
15341;DHT22;7770;52.158;5.372;2022-10-31T16:05:18;16.20;99.90
15341;DHT22;7770;52.158;5.372;2022-10-31T16:11:18;16.00;99.90
15341;DHT22;7770;52.158;5.372;2022-10-31T16:16:59;15.90;99.90
15341;DHT22;7770;52.158;5.372;2022-10-31T16:19:56;16.00;99.90
15341;DHT22;7770;52.158;5.372;2022-10-31T16:22:49;15.90;99.90
15341;DHT22;7770;52.158;5.372;2022-10-31T16:25:37;15.90;99.90
15341;DHT22;7770;52.158;5.372;2022-10-31T16:28:25;15.90;99.90
15341;DHT22;7770;52.158;5.372;2022-10-31T16:31:13;15.80;99.90
15341;DHT22;7770;52.158;5.372;2022-10-31T16:34:21;15.70;99.90
15341;DHT22;7770;52.158;5.372;2022-10-31T16:37:08;15.60;99.90
15341;DHT22;7770;52.158;5.372;2022-10-31T16:39:53;15.50;99.90
15341;DHT22;7770;52.158;5.372;2022-10-31T16:42:40;15.40;99.90
15341;DHT22;7770;52.158;5.372;2022-10-31T16:45:29;15.30;99.90
15341;DHT22;7770;52.158;5.372;2022-10-31T16:48:19;15.30;99.90
15341;DHT22;7770;52.158;5.372;2022-10-31T16:51:07;15.20;99.90
15341;DHT22;7770;52.158;5.372;2022-10-31T16:53:54;15.20;99.90
15341;DHT22;7770;52.158;5.372;2022-10-31T16:56:41;15.10;99.90
15341;DHT22;7770;52.158;5.372;2022-10-31T16:59:29;15.00;99.90
15341;DHT22;7770;52.158;5.372;2022-10-31T17:02:18;15.00;99.90
15341;DHT22;7770;52.158;5.372;2022-10-31T17:05:04;15.10;99.90
15341;DHT22;7770;52.158;5.372;2022-10-31T17:07:51;15.00;99.90
15341;DHT22;7770;52.158;5.372;2022-10-31T17:10:40;15.00;99.90
15341;DHT22;7770;52.158;5.372;2022-10-31T17:13:29;15.10;99.90
15341;DHT22;7770;52.158;5.372;2022-10-31T17:16:16;15.10;99.90
15341;DHT22;7770;52.158;5.372;2022-10-31T17:19:02;15.10;99.90
15341;DHT22;7770;52.158;5.372;2022-10-31T17:21:48;15.00;99.90
15341;DHT22;7770;52.158;5.372;2022-10-31T17:24:34;15.00;99.90
15341;DHT22;7770;52.158;5.372;2022-10-31T17:27:20;15.00;99.90
15341;DHT22;7770;52.158;5.372;2022-10-31T17:30:07;14.90;99.90
15341;DHT22;7770;52.158;5.372;2022-10-31T17:32:53;14.80;99.90
15341;DHT22;7770;52.158;5.372;2022-10-31T17:35:43;14.70;99.90
15341;DHT22;7770;52.158;5.372;2022-10-31T17:38:29;14.70;99.90
15341;DHT22;7770;52.158;5.372;2022-10-31T17:41:16;14.70;99.90
15341;DHT22;7770;52.158;5.372;2022-10-31T17:44:02;14.60;99.90
15341;DHT22;7770;52.158;5.372;2022-10-31T17:46:48;14.50;99.90
15341;DHT22;7770;52.158;5.372;2022-10-31T17:49:34;14.40;99.90
15341;DHT22;7770;52.158;5.372;2022-10-31T17:52:20;14.40;99.90
15341;DHT22;7770;52.158;5.372;2022-10-31T17:55:07;14.40;99.90
15341;DHT22;7770;52.158;5.372;2022-10-31T17:57:53;14.40;99.90
15341;DHT22;7770;52.158;5.372;2022-10-31T18:00:40;14.30;99.90
15341;DHT22;7770;52.158;5.372;2022-10-31T18:03:26;14.30;99.90
15341;DHT22;7770;52.158;5.372;2022-10-31T18:06:12;14.30;99.90
15341;DHT22;7770;52.158;5.372;2022-10-31T18:09:03;14.30;99.90
15341;DHT22;7770;52.158;5.372;2022-10-31T18:11:49;14.20;99.90
15341;DHT22;7770;52.158;5.372;2022-10-31T18:14:35;14.20;99.90
15341;DHT22;7770;52.158;5.372;2022-10-31T18:17:21;14.20;99.90
15341;DHT22;7770;52.158;5.372;2022-10-31T18:20:07;14.10;99.90
15341;DHT22;7770;52.158;5.372;2022-10-31T18:22:54;14.10;99.90
15341;DHT22;7770;52.158;5.372;2022-10-31T18:25:40;14.10;99.90
15341;DHT22;7770;52.158;5.372;2022-10-31T18:28:28;14.10;99.90
15341;DHT22;7770;52.158;5.372;2022-10-31T18:31:14;14.10;99.90
15341;DHT22;7770;52.158;5.372;2022-10-31T18:34:00;14.20;99.90
15341;DHT22;7770;52.158;5.372;2022-10-31T18:36:46;14.10;99.90
15341;DHT22;7770;52.158;5.372;2022-10-31T18:39:32;14.20;99.90
15341;DHT22;7770;52.158;5.372;2022-10-31T18:42:18;14.30;99.90
15341;DHT22;7770;52.158;5.372;2022-10-31T18:45:04;14.30;99.90
15341;DHT22;7770;52.158;5.372;2022-10-31T18:47:51;14.20;99.90
15341;DHT22;7770;52.158;5.372;2022-10-31T18:50:40;14.10;99.90
15341;DHT22;7770;52.158;5.372;2022-10-31T18:53:27;14.00;99.90
15341;DHT22;7770;52.158;5.372;2022-10-31T18:56:15;14.10;99.90
15341;DHT22;7770;52.158;5.372;2022-10-31T18:59:01;14.10;99.90
15341;DHT22;7770;52.158;5.372;2022-10-31T19:01:47;14.00;99.90
15341;DHT22;7770;52.158;5.372;2022-10-31T19:04:34;14.00;99.90
15341;DHT22;7770;52.158;5.372;2022-10-31T19:07:19;14.10;99.90
15341;DHT22;7770;52.158;5.372;2022-10-31T19:10:06;14.20;99.90
15341;DHT22;7770;52.158;5.372;2022-10-31T19:12:52;14.30;99.90
15341;DHT22;7770;52.158;5.372;2022-10-31T19:15:38;14.20;99.90
15341;DHT22;7770;52.158;5.372;2022-10-31T19:18:24;14.20;99.90
15341;DHT22;7770;52.158;5.372;2022-10-31T19:21:15;14.10;99.90
15341;DHT22;7770;52.158;5.372;2022-10-31T19:24:02;14.10;99.90
15341;DHT22;7770;52.158;5.372;2022-10-31T19:26:48;14.20;99.90
15341;DHT22;7770;52.158;5.372;2022-10-31T19:29:34;14.20;99.90
15341;DHT22;7770;52.158;5.372;2022-10-31T19:32:20;14.20;99.90
15341;DHT22;7770;52.158;5.372;2022-10-31T19:35:07;14.30;99.90
15341;DHT22;7770;52.158;5.372;2022-10-31T19:37:53;14.30;99.90
15341;DHT22;7770;52.158;5.372;2022-10-31T19:40:39;14.30;99.90
15341;DHT22;7770;52.158;5.372;2022-10-31T19:43:27;14.30;99.90
15341;DHT22;7770;52.158;5.372;2022-10-31T19:46:16;14.40;99.90
15341;DHT22;7770;52.158;5.372;2022-10-31T19:49:02;14.40;99.90
15341;DHT22;7770;52.158;5.372;2022-10-31T19:51:48;14.40;99.90
15341;DHT22;7770;52.158;5.372;2022-10-31T19:54:35;14.40;99.90
15341;DHT22;7770;52.158;5.372;2022-10-31T19:57:21;14.40;99.90
15341;DHT22;7770;52.158;5.372;2022-10-31T20:00:07;14.40;99.90
15341;DHT22;7770;52.158;5.372;2022-10-31T20:02:54;14.30;99.90
15341;DHT22;7770;52.158;5.372;2022-10-31T20:05:40;14.30;99.90
15341;DHT22;7770;52.158;5.372;2022-10-31T20:08:27;14.30;99.90
15341;DHT22;7770;52.158;5.372;2022-10-31T20:11:15;14.40;99.90
15341;DHT22;7770;52.158;5.372;2022-10-31T20:14:01;14.40;99.90
15341;DHT22;7770;52.158;5.372;2022-10-31T20:16:47;14.40;99.90